Time;durP1;ratioP1;P1;durP2;ratioP2;P2;SDS_P1;SDS_P2;PMS_P1;PMS_P2;Temp;Humidity;BMP_temperature;BMP_pressure;BME280_temperature;BME280_humidity;BME280_pressure;Samples;Min_cycle;Max_cycle;Signal;HPM_P1;HPM_P2
2022/03/15 00:01:02;;;;;;;14.43;6.35;;;6.30;99.90;;;;;;5070186;28;20094;-81
2022/03/15 00:03:28;;;;;;;19.25;7.32;;;6.20;99.90;;;;;;5069212;28;20037;-81
2022/03/15 00:05:54;;;;;;;18.40;6.07;;;6.10;99.90;;;;;;5070034;28;20035;-81
2022/03/15 00:08:20;;;;;;;18.42;8.05;;;6.10;99.90;;;;;;5069753;28;20083;-81
2022/03/15 00:10:48;;;;;;;18.85;7.55;;;6.00;99.90;;;;;;5070076;28;20037;-81
2022/03/15 00:13:15;;;;;;;16.88;7.43;;;6.00;99.90;;;;;;5053020;28;20047;-81
2022/03/15 00:15:42;;;;;;;16.75;7.15;;;5.90;99.90;;;;;;5069705;28;20082;-81
2022/03/15 00:18:08;;;;;;;16.88;6.50;;;5.90;99.90;;;;;;5069883;28;20123;-81
2022/03/15 00:20:34;;;;;;;14.68;4.97;;;5.80;99.90;;;;;;5070011;28;20436;-81
2022/03/15 00:23:00;;;;;;;13.60;5.47;;;5.80;99.90;;;;;;5070032;28;20522;-81
2022/03/15 00:25:27;;;;;;;15.15;6.93;;;5.80;99.90;;;;;;5069646;28;20506;-81
2022/03/15 00:27:54;;;;;;;16.27;7.28;;;5.80;99.90;;;;;;5069490;28;20041;-81
2022/03/15 00:30:21;;;;;;;13.93;6.00;;;5.80;99.90;;;;;;5069664;28;20080;-81
2022/03/15 00:32:47;;;;;;;14.52;6.80;;;5.80;99.90;;;;;;5052839;28;20406;-81
2022/03/15 00:35:17;;;;;;;14.93;6.45;;;5.80;99.90;;;;;;5069641;28;20040;-81
2022/03/15 00:37:47;;;;;;;15.82;6.35;;;5.80;99.90;;;;;;5052717;28;20041;-81
2022/03/15 00:40:14;;;;;;;12.13;5.95;;;5.90;99.90;;;;;;5069996;28;20394;-81
2022/03/15 00:42:40;;;;;;;12.50;6.38;;;5.80;99.90;;;;;;5069466;28;20045;-81
2022/03/15 00:45:07;;;;;;;11.80;5.50;;;5.80;99.90;;;;;;5069560;28;20048;-81
2022/03/15 00:47:32;;;;;;;12.75;5.22;;;5.80;99.90;;;;;;5069337;28;20036;-81
2022/03/15 00:49:58;;;;;;;11.05;4.47;;;5.70;99.90;;;;;;5069372;28;20040;-81
2022/03/15 00:52:24;;;;;;;9.93;3.63;;;5.70;99.90;;;;;;5052723;28;20417;-81
2022/03/15 00:54:49;;;;;;;8.40;4.28;;;5.70;99.90;;;;;;5051557;28;20101;-81
2022/03/15 00:57:15;;;;;;;10.48;4.07;;;5.60;99.90;;;;;;5052524;28;20052;-81
2022/03/15 00:59:41;;;;;;;9.98;4.32;;;5.60;99.90;;;;;;5068844;28;20033;-81
2022/03/15 01:02:07;;;;;;;8.60;4.30;;;5.60;99.90;;;;;;5069823;28;20069;-81
2022/03/15 01:04:32;;;;;;;11.80;5.22;;;5.60;99.90;;;;;;5069265;28;20502;-81
2022/03/15 01:06:58;;;;;;;12.68;5.82;;;5.60;99.90;;;;;;5069305;28;20067;-81
2022/03/15 01:09:23;;;;;;;9.85;5.20;;;5.60;99.90;;;;;;5069247;28;20098;-81
2022/03/15 01:11:50;;;;;;;11.40;5.25;;;5.60;99.90;;;;;;5068992;28;20417;-81
2022/03/15 01:14:15;;;;;;;10.18;5.43;;;5.60;99.90;;;;;;5070080;28;20409;-81
2022/03/15 01:16:41;;;;;;;13.90;7.18;;;5.50;99.90;;;;;;5073108;28;20119;-81
2022/03/15 01:19:08;;;;;;;10.73;4.50;;;5.50;99.90;;;;;;5072757;28;20037;-81
2022/03/15 01:21:38;;;;;;;8.25;4.13;;;5.60;99.90;;;;;;5072971;28;20397;-81
2022/03/15 01:24:08;;;;;;;12.63;5.40;;;5.50;99.90;;;;;;5072991;28;20051;-81
2022/03/15 01:26:37;;;;;;;10.20;4.53;;;5.50;99.90;;;;;;5072976;28;20086;-81
2022/03/15 01:29:03;;;;;;;9.30;5.30;;;5.50;99.90;;;;;;5056464;28;20055;-81
2022/03/15 01:31:29;;;;;;;8.48;4.22;;;5.50;99.90;;;;;;5072331;28;20082;-81
2022/03/15 01:33:55;;;;;;;11.88;6.30;;;5.40;99.90;;;;;;5072702;28;20451;-81
2022/03/15 01:36:21;;;;;;;9.70;5.45;;;5.40;99.90;;;;;;5072961;28;20040;-81
2022/03/15 01:38:47;;;;;;;11.95;6.47;;;5.40;99.90;;;;;;5072400;28;20580;-81
2022/03/15 01:41:12;;;;;;;14.55;7.10;;;5.30;99.90;;;;;;5072911;28;20071;-81
2022/03/15 01:43:40;;;;;;;12.00;6.50;;;5.40;99.90;;;;;;5055998;28;20091;-81
2022/03/15 01:46:06;;;;;;;12.30;6.93;;;5.40;99.90;;;;;;5072599;28;20048;-81
2022/03/15 01:48:32;;;;;;;13.57;6.93;;;5.30;99.90;;;;;;5072396;28;20524;-81
2022/03/15 01:50:58;;;;;;;12.43;6.72;;;5.30;99.90;;;;;;5072485;28;20036;-81
2022/03/15 01:53:24;;;;;;;15.35;8.43;;;5.30;99.90;;;;;;5071348;28;20129;-81
2022/03/15 01:55:50;;;;;;;18.90;8.77;;;5.30;99.90;;;;;;5052377;28;20049;-81
2022/03/15 01:58:16;;;;;;;13.68;7.75;;;5.40;99.90;;;;;;5052169;28;20340;-81
2022/03/15 02:00:41;;;;;;;16.63;7.45;;;5.40;99.90;;;;;;5052315;28;20163;-81
2022/03/15 02:03:07;;;;;;;14.65;7.53;;;5.30;99.90;;;;;;5052667;28;20169;-81
2022/03/15 02:05:33;;;;;;;14.95;7.53;;;5.30;99.90;;;;;;5052224;28;20037;-81
2022/03/15 02:08:13;;;;;;;13.65;6.85;;;5.30;99.90;;;;;;5052149;28;20532;-80
2022/03/15 02:10:39;;;;;;;11.93;6.63;;;5.30;99.90;;;;;;5051925;28;20041;-81
2022/03/15 02:13:05;;;;;;;10.10;5.20;;;5.20;99.90;;;;;;5051947;28;20041;-81
2022/03/15 02:15:31;;;;;;;11.48;5.82;;;5.20;99.90;;;;;;5051920;28;20052;-81
2022/03/15 02:17:57;;;;;;;9.57;6.03;;;5.20;99.90;;;;;;5034954;28;20048;-81
2022/03/15 02:20:23;;;;;;;11.55;5.82;;;5.10;99.90;;;;;;5051954;28;20040;-81
2022/03/15 02:22:49;;;;;;;8.65;4.53;;;5.10;99.90;;;;;;5052017;28;20067;-81
2022/03/15 02:25:14;;;;;;;9.38;5.82;;;5.00;99.90;;;;;;5051581;28;20041;-81
2022/03/15 02:27:40;;;;;;;10.80;5.85;;;5.00;99.90;;;;;;5052021;28;20071;-81
2022/03/15 02:30:06;;;;;;;10.30;4.78;;;5.00;99.90;;;;;;5035140;28;20136;-81
2022/03/15 02:32:35;;;;;;;10.80;5.53;;;5.00;99.90;;;;;;5069756;28;20076;-81
2022/03/15 02:35:01;;;;;;;8.70;5.40;;;5.00;99.90;;;;;;5055283;28;20041;-81
2022/03/15 02:37:27;;;;;;;9.93;5.18;;;4.90;99.90;;;;;;5071978;28;20055;-81
2022/03/15 02:39:52;;;;;;;13.75;5.43;;;4.90;99.90;;;;;;5071229;28;20033;-81
2022/03/15 02:42:19;;;;;;;9.80;5.28;;;4.90;99.90;;;;;;5071793;28;20574;-81
2022/03/15 02:44:45;;;;;;;10.00;5.57;;;4.90;99.90;;;;;;5055117;28;20131;-81
2022/03/15 02:47:12;;;;;;;12.05;6.43;;;4.80;99.90;;;;;;5071110;28;20505;-81
2022/03/15 02:49:38;;;;;;;12.55;6.07;;;4.80;99.90;;;;;;5071621;28;20042;-81
2022/03/15 02:52:04;;;;;;;13.90;7.25;;;4.80;99.90;;;;;;5070900;28;20037;-81
2022/03/15 02:54:30;;;;;;;15.85;6.95;;;4.80;99.90;;;;;;5070600;28;20051;-81
2022/03/15 02:56:56;;;;;;;13.45;7.70;;;4.80;99.90;;;;;;5071373;28;20043;-81
2022/03/15 02:59:22;;;;;;;14.20;8.00;;;4.80;99.90;;;;;;5054328;28;20036;-81
2022/03/15 03:01:48;;;;;;;18.58;8.63;;;4.80;99.90;;;;;;5054386;28;20128;-81
2022/03/15 03:04:15;;;;;;;22.90;8.43;;;4.80;99.90;;;;;;5071143;28;20123;-81
2022/03/15 03:06:41;;;;;;;15.88;7.20;;;4.80;99.90;;;;;;5070567;28;20063;-81
2022/03/15 03:09:08;;;;;;;15.50;7.72;;;4.80;99.90;;;;;;5070855;28;20120;-81
2022/03/15 03:11:33;;;;;;;15.68;7.72;;;4.80;99.90;;;;;;5070915;28;20410;-81
2022/03/15 03:14:00;;;;;;;13.88;7.38;;;4.90;99.90;;;;;;5054122;28;20052;-81
2022/03/15 03:16:26;;;;;;;12.68;7.30;;;4.90;99.90;;;;;;5070821;28;20044;-81
2022/03/15 03:18:58;;;;;;;14.98;7.60;;;4.90;99.90;;;;;;5070890;28;20076;-81
2022/03/15 03:21:28;;;;;;;16.48;7.25;;;4.90;99.90;;;;;;5054380;28;20040;-81
2022/03/15 03:23:55;;;;;;;15.18;7.22;;;4.80;99.90;;;;;;5070815;28;20664;-81
2022/03/15 03:26:23;;;;;;;15.20;7.82;;;4.80;99.90;;;;;;5070687;28;20036;-81
2022/03/15 03:28:48;;;;;;;16.55;7.63;;;4.80;99.90;;;;;;5070560;28;20063;-81
2022/03/15 03:31:15;;;;;;;20.15;9.25;;;4.70;99.90;;;;;;5070248;28;20513;-81
2022/03/15 03:33:41;;;;;;;15.60;7.50;;;4.70;99.90;;;;;;5070555;28;20045;-81
2022/03/15 03:36:07;;;;;;;15.93;7.53;;;4.60;99.90;;;;;;5054094;28;20043;-81
2022/03/15 03:38:33;;;;;;;14.48;7.70;;;4.60;99.90;;;;;;5069861;28;20379;-81
2022/03/15 03:40:59;;;;;;;14.73;7.25;;;4.60;99.90;;;;;;5070497;28;20532;-81
2022/03/15 03:43:25;;;;;;;13.80;8.18;;;4.50;99.90;;;;;;5053648;28;20086;-81
2022/03/15 03:45:50;;;;;;;17.02;8.23;;;4.50;99.90;;;;;;5053790;28;20725;-81
2022/03/15 03:48:16;;;;;;;18.27;9.55;;;4.40;99.90;;;;;;5069847;28;20036;-81
2022/03/15 03:50:43;;;;;;;20.50;8.63;;;4.40;99.90;;;;;;5070441;28;20040;-81
2022/03/15 03:53:09;;;;;;;15.95;8.23;;;4.30;99.90;;;;;;5053207;28;20060;-81
2022/03/15 03:55:36;;;;;;;19.52;9.57;;;4.30;99.90;;;;;;5069139;28;20040;-81
2022/03/15 03:58:02;;;;;;;21.35;9.63;;;4.30;99.90;;;;;;5070084;28;20068;-81
2022/03/15 04:00:27;;;;;;;15.43;8.32;;;4.40;99.90;;;;;;5070302;28;20070;-81
2022/03/15 04:02:54;;;;;;;15.70;8.85;;;4.40;99.90;;;;;;5070173;28;20041;-81
2022/03/15 04:05:20;;;;;;;15.07;7.45;;;4.30;99.90;;;;;;5070095;28;20040;-81
2022/03/15 04:07:46;;;;;;;19.50;8.38;;;4.30;99.90;;;;;;5069929;28;20048;-81
2022/03/15 04:10:12;;;;;;;14.60;7.57;;;4.30;99.90;;;;;;5069597;28;20161;-81
2022/03/15 04:12:38;;;;;;;14.40;7.75;;;4.40;99.90;;;;;;5069773;28;20531;-81
2022/03/15 04:15:05;;;;;;;16.90;9.77;;;4.40;99.90;;;;;;5070104;28;20044;-81
2022/03/15 04:17:31;;;;;;;16.25;9.00;;;4.40;99.90;;;;;;5053279;28;20131;-81
2022/03/15 04:19:56;;;;;;;18.05;8.73;;;4.50;99.90;;;;;;5069639;28;20036;-81
2022/03/15 04:22:22;;;;;;;18.65;8.93;;;4.50;99.90;;;;;;5053146;28;20037;-81
2022/03/15 04:24:48;;;;;;;19.25;9.75;;;4.60;99.90;;;;;;5070188;28;20078;-80
2022/03/15 04:27:16;;;;;;;25.95;9.63;;;4.60;99.90;;;;;;5054440;28;20040;-81
2022/03/15 04:29:42;;;;;;;17.48;9.07;;;4.60;99.90;;;;;;5054372;28;20048;-81
2022/03/15 04:32:08;;;;;;;17.63;8.60;;;4.60;99.90;;;;;;5070239;28;20067;-81
2022/03/15 04:34:34;;;;;;;15.85;9.10;;;4.60;99.90;;;;;;5070539;28;20032;-81
2022/03/15 04:36:59;;;;;;;20.05;10.77;;;4.60;99.90;;;;;;5067580;28;20051;-81
2022/03/15 04:39:25;;;;;;;18.85;10.77;;;4.60;99.90;;;;;;5069175;28;20044;-81
2022/03/15 04:41:51;;;;;;;23.40;12.93;;;4.60;99.90;;;;;;5069376;28;20063;-81
2022/03/15 04:44:18;;;;;;;25.98;12.93;;;4.70;99.90;;;;;;5069574;28;20083;-81
2022/03/15 04:46:44;;;;;;;21.13;12.52;;;4.70;99.90;;;;;;5069738;28;20521;-81
2022/03/15 04:49:10;;;;;;;23.45;12.52;;;4.80;99.90;;;;;;5071525;28;20041;-81
2022/03/15 04:51:35;;;;;;;19.08;12.32;;;4.70;99.90;;;;;;5073456;28;20040;-81
2022/03/15 04:54:02;;;;;;;22.33;12.27;;;4.70;99.90;;;;;;5072403;28;20416;-81
2022/03/15 04:56:27;;;;;;;23.75;14.40;;;4.70;99.90;;;;;;5073444;28;20040;-81
2022/03/15 04:58:53;;;;;;;20.92;12.55;;;4.80;99.90;;;;;;5073364;28;20515;-81
2022/03/15 05:01:19;;;;;;;22.55;13.95;;;4.80;99.90;;;;;;5073260;28;20633;-81
2022/03/15 05:03:44;;;;;;;25.83;15.32;;;4.80;99.90;;;;;;5073648;28;20043;-81
2022/03/15 05:06:10;;;;;;;22.25;14.60;;;4.80;99.90;;;;;;5073299;28;20123;-81
2022/03/15 05:08:35;;;;;;;24.45;15.85;;;4.80;99.90;;;;;;5072959;28;20083;-81
2022/03/15 05:11:07;;;;;;;25.23;14.90;;;4.90;99.90;;;;;;5056748;28;20048;-81
2022/03/15 05:13:45;;;;;;;25.45;15.43;;;4.90;99.90;;;;;;5073151;28;20090;-81
2022/03/15 05:16:15;;;;;;;27.00;14.25;;;4.90;99.90;;;;;;5073194;28;20037;-81
2022/03/15 05:18:41;;;;;;;24.65;15.82;;;5.00;99.90;;;;;;5073014;28;20048;-81
2022/03/15 05:21:07;;;;;;;31.20;17.60;;;5.00;99.90;;;;;;5073182;28;20076;-81
2022/03/15 05:23:34;;;;;;;27.73;17.20;;;5.10;99.90;;;;;;5073055;28;20080;-81
2022/03/15 05:26:00;;;;;;;28.48;16.63;;;5.10;99.90;;;;;;5056337;28;20051;-81
2022/03/15 05:28:25;;;;;;;31.13;19.65;;;5.10;99.90;;;;;;5072742;28;20051;-81
2022/03/15 05:30:52;;;;;;;29.38;18.08;;;5.10;99.90;;;;;;5073095;28;20040;-81
2022/03/15 05:33:17;;;;;;;31.08;19.70;;;5.20;99.90;;;;;;5072568;28;20550;-81
2022/03/15 05:35:43;;;;;;;29.85;19.45;;;5.20;99.90;;;;;;5072936;28;20041;-81
2022/03/15 05:38:09;;;;;;;33.22;20.33;;;5.20;99.90;;;;;;5072739;28;20048;-81
2022/03/15 05:40:35;;;;;;;31.92;20.17;;;5.20;99.90;;;;;;5072372;28;20409;-81
2022/03/15 05:43:00;;;;;;;36.80;19.65;;;5.30;99.90;;;;;;5072878;28;20044;-81
2022/03/15 05:45:26;;;;;;;34.05;20.83;;;5.30;99.90;;;;;;5055973;28;20129;-81
2022/03/15 05:47:52;;;;;;;33.22;20.15;;;5.30;99.90;;;;;;5056060;28;20071;-81
2022/03/15 05:50:18;;;;;;;33.97;21.65;;;5.40;99.90;;;;;;5055912;28;20044;-81
2022/03/15 05:52:43;;;;;;;31.80;20.92;;;5.40;99.90;;;;;;5072039;28;20051;-81
2022/03/15 05:55:10;;;;;;;34.97;22.08;;;5.40;99.90;;;;;;5071559;28;20072;-81
2022/03/15 05:57:36;;;;;;;32.35;20.13;;;5.40;99.90;;;;;;5072743;28;20076;-81
2022/03/15 06:00:03;;;;;;;34.40;21.98;;;5.40;99.90;;;;;;5055099;28;20436;-81
2022/03/15 06:02:29;;;;;;;34.38;21.98;;;5.40;99.90;;;;;;5072077;28;20044;-81
2022/03/15 06:04:54;;;;;;;34.28;20.30;;;5.50;99.90;;;;;;5072372;28;20131;-81
2022/03/15 06:07:20;;;;;;;36.58;23.25;;;5.50;99.90;;;;;;5072299;28;20094;-81
2022/03/15 06:09:45;;;;;;;39.10;21.23;;;5.50;99.90;;;;;;5071768;28;20044;-81
2022/03/15 06:12:11;;;;;;;32.85;21.67;;;5.60;99.90;;;;;;5072652;28;20044;-81
2022/03/15 06:14:37;;;;;;;33.85;21.90;;;5.60;99.90;;;;;;5072216;28;20068;-81
2022/03/15 06:17:04;;;;;;;33.38;20.45;;;5.60;99.90;;;;;;5072065;28;20490;-81
2022/03/15 06:19:30;;;;;;;37.75;22.30;;;5.60;99.90;;;;;;5055316;28;20059;-81
2022/03/15 06:21:55;;;;;;;31.48;21.63;;;5.60;99.90;;;;;;5072220;28;20545;-81
2022/03/15 06:24:22;;;;;;;35.60;21.83;;;5.70;99.90;;;;;;5072500;28;20043;-81
2022/03/15 06:26:48;;;;;;;31.60;20.60;;;5.70;99.90;;;;;;5054628;28;20048;-81
2022/03/15 06:29:13;;;;;;;33.75;21.25;;;5.70;99.90;;;;;;5071722;28;20037;-81
2022/03/15 06:31:39;;;;;;;35.58;22.77;;;5.70;99.90;;;;;;5055071;28;20044;-81
2022/03/15 06:34:05;;;;;;;37.63;23.35;;;5.80;99.90;;;;;;5071618;28;20047;-81
2022/03/15 06:36:31;;;;;;;39.50;23.40;;;5.80;99.90;;;;;;5071312;28;20120;-81
2022/03/15 06:38:57;;;;;;;36.95;23.98;;;5.80;99.90;;;;;;5071540;28;20090;-81
2022/03/15 06:41:23;;;;;;;33.28;21.90;;;5.90;99.90;;;;;;5071587;28;20440;-81
2022/03/15 06:43:48;;;;;;;35.35;23.38;;;5.90;99.90;;;;;;5071609;28;20040;-81
2022/03/15 06:46:17;;;;;;;39.78;23.98;;;5.90;99.90;;;;;;5071470;28;20044;-81
2022/03/15 06:48:43;;;;;;;37.13;22.88;;;6.00;99.90;;;;;;5054382;28;20048;-81
2022/03/15 06:51:09;;;;;;;34.13;21.80;;;6.00;99.90;;;;;;5054904;28;20040;-81
2022/03/15 06:53:35;;;;;;;34.95;22.05;;;6.00;99.90;;;;;;5070002;28;20097;-81
2022/03/15 06:56:01;;;;;;;38.22;23.50;;;6.00;99.90;;;;;;5071831;28;20036;-81
2022/03/15 06:58:26;;;;;;;33.85;21.75;;;6.00;99.90;;;;;;5071507;28;20029;-81
2022/03/15 07:00:54;;;;;;;33.80;22.50;;;6.10;99.90;;;;;;5071191;28;20493;-81
2022/03/15 07:03:19;;;;;;;38.00;23.95;;;6.10;99.90;;;;;;5071466;28;20076;-81
2022/03/15 07:05:45;;;;;;;34.55;23.33;;;6.10;99.90;;;;;;5070231;28;20080;-81
2022/03/15 07:08:11;;;;;;;34.85;22.17;;;6.20;99.90;;;;;;5071586;28;20040;-81
2022/03/15 07:10:36;;;;;;;39.45;22.92;;;6.20;99.90;;;;;;5070948;28;20655;-81
2022/03/15 07:13:02;;;;;;;34.25;23.15;;;6.20;99.90;;;;;;5053383;28;20037;-81
2022/03/15 07:15:28;;;;;;;36.33;22.88;;;6.30;99.90;;;;;;5071363;28;20078;-81
2022/03/15 07:17:55;;;;;;;34.22;22.60;;;6.30;99.90;;;;;;5071076;28;20071;-81
2022/03/15 07:20:23;;;;;;;38.17;25.13;;;6.30;99.90;;;;;;5070832;28;20498;-80
2022/03/15 07:22:48;;;;;;;32.33;22.55;;;6.40;99.90;;;;;;5054333;28;20045;-81
2022/03/15 07:25:14;;;;;;;35.85;24.05;;;6.40;99.90;;;;;;5054287;28;20058;-81
2022/03/15 07:27:40;;;;;;;36.05;23.85;;;6.50;99.90;;;;;;5070557;28;20040;-81
2022/03/15 07:30:07;;;;;;;33.95;23.65;;;6.50;99.90;;;;;;5070468;28;20415;-81
2022/03/15 07:32:33;;;;;;;34.70;23.02;;;6.50;99.90;;;;;;5053570;28;20048;-81
2022/03/15 07:34:59;;;;;;;39.92;23.23;;;6.60;99.90;;;;;;5070301;28;20123;-81
2022/03/15 07:37:24;;;;;;;35.03;22.85;;;6.60;99.90;;;;;;5069207;28;20470;-80
2022/03/15 07:39:50;;;;;;;33.17;23.25;;;6.60;99.90;;;;;;5069955;28;20553;-80
2022/03/15 07:42:16;;;;;;;35.97;24.13;;;6.70;99.90;;;;;;5070465;28;20044;-81
2022/03/15 07:44:45;;;;;;;37.00;24.52;;;6.70;99.90;;;;;;5070512;28;20041;-80
2022/03/15 07:47:13;;;;;;;35.05;23.77;;;6.80;99.90;;;;;;5053680;28;20036;-80
2022/03/15 07:49:38;;;;;;;33.35;23.20;;;6.80;99.90;;;;;;5070120;28;20409;-80
2022/03/15 07:52:04;;;;;;;33.70;23.02;;;6.80;99.90;;;;;;5070413;28;20123;-81
2022/03/15 07:54:30;;;;;;;32.78;23.90;;;6.90;99.90;;;;;;5068900;28;20040;-80
2022/03/15 07:56:55;;;;;;;32.22;23.77;;;6.90;99.90;;;;;;5070281;28;20047;-81
2022/03/15 07:59:21;;;;;;;31.42;22.35;;;7.00;99.90;;;;;;5070012;28;20124;-81
2022/03/15 08:01:47;;;;;;;33.58;23.15;;;7.00;99.90;;;;;;5070025;28;20036;-80
2022/03/15 08:04:13;;;;;;;33.63;23.58;;;7.00;99.90;;;;;;5070396;28;20048;-80
2022/03/15 08:06:39;;;;;;;31.83;22.08;;;7.10;99.90;;;;;;5070231;28;20049;-81
2022/03/15 08:09:05;;;;;;;33.35;23.73;;;7.10;99.90;;;;;;5053573;28;20482;-81
2022/03/15 08:11:30;;;;;;;34.20;24.00;;;7.20;99.90;;;;;;5070558;28;20399;-81
2022/03/15 08:13:57;;;;;;;33.97;22.30;;;7.20;99.90;;;;;;5069742;28;20517;-81
2022/03/15 08:16:23;;;;;;;31.25;22.15;;;7.20;99.90;;;;;;5069846;28;20565;-81
2022/03/15 08:18:50;;;;;;;33.00;22.90;;;7.30;99.90;;;;;;5069623;28;20171;-80
2022/03/15 08:21:16;;;;;;;30.48;22.05;;;7.30;99.90;;;;;;5053578;28;20139;-81
2022/03/15 08:23:43;;;;;;;33.58;22.70;;;7.30;99.90;;;;;;5053120;28;20527;-81
2022/03/15 08:26:08;;;;;;;29.65;20.17;;;7.40;99.90;;;;;;5070981;28;20551;-81
2022/03/15 08:28:34;;;;;;;33.17;23.63;;;7.40;99.90;;;;;;5071073;28;20048;-81
2022/03/15 08:31:00;;;;;;;30.17;22.73;;;7.40;99.90;;;;;;5069717;28;20067;-81
2022/03/15 08:33:26;;;;;;;31.42;23.17;;;7.50;99.90;;;;;;5053425;28;20055;-81
2022/03/15 08:35:52;;;;;;;30.92;22.20;;;7.50;99.90;;;;;;5069861;28;20131;-81
2022/03/15 08:38:18;;;;;;;33.40;23.08;;;7.50;99.90;;;;;;5070116;28;20102;-81
2022/03/15 08:40:44;;;;;;;35.30;23.02;;;7.60;99.90;;;;;;5069582;28;20039;-81
2022/03/15 08:43:10;;;;;;;30.77;22.75;;;7.60;99.90;;;;;;5069615;28;20382;-81
2022/03/15 08:45:36;;;;;;;35.83;25.50;;;7.70;99.90;;;;;;5069323;28;20075;-81
2022/03/15 08:48:03;;;;;;;30.88;23.00;;;7.70;99.90;;;;;;5069925;28;20592;-80
2022/03/15 08:50:29;;;;;;;32.45;23.70;;;7.70;99.90;;;;;;5052939;28;20080;-81
2022/03/15 08:52:55;;;;;;;33.13;23.98;;;7.70;99.90;;;;;;5069860;28;20108;-81
2022/03/15 08:55:21;;;;;;;32.65;23.48;;;7.70;99.90;;;;;;5068439;28;20098;-81
2022/03/15 08:57:47;;;;;;;32.33;24.58;;;7.70;99.90;;;;;;5069705;28;20051;-81
2022/03/15 09:00:13;;;;;;;33.35;24.40;;;7.80;99.90;;;;;;5069543;28;20036;-81
2022/03/15 09:02:38;;;;;;;35.60;23.33;;;7.80;99.90;;;;;;5069542;28;20409;-80
2022/03/15 09:05:05;;;;;;;34.25;24.92;;;7.80;99.90;;;;;;5069880;28;20037;-80
2022/03/15 09:07:30;;;;;;;32.40;25.13;;;7.90;99.90;;;;;;5069602;28;20044;-80
2022/03/15 09:09:56;;;;;;;32.47;24.58;;;7.90;99.90;;;;;;5052541;28;20047;-81
2022/03/15 09:12:22;;;;;;;31.55;25.00;;;7.90;99.90;;;;;;5069622;28;20037;-81
2022/03/15 09:14:48;;;;;;;31.17;24.73;;;7.90;99.90;;;;;;5069017;28;20415;-80
2022/03/15 09:17:14;;;;;;;32.30;24.38;;;8.00;99.90;;;;;;5069858;28;20085;-81
2022/03/15 09:19:40;;;;;;;32.75;25.88;;;8.00;99.90;;;;;;5052576;28;20446;-81
2022/03/15 09:22:07;;;;;;;33.13;25.15;;;8.10;99.90;;;;;;5052928;28;20600;-81
2022/03/15 09:24:34;;;;;;;31.77;25.67;;;8.10;99.90;;;;;;5052785;28;20039;-81
2022/03/15 09:27:00;;;;;;;32.45;23.77;;;8.20;99.90;;;;;;5051782;28;20051;-80
2022/03/15 09:29:25;;;;;;;33.05;24.25;;;8.20;99.90;;;;;;5054159;28;20260;-81
2022/03/15 09:31:51;;;;;;;31.70;23.90;;;8.20;99.90;;;;;;5069743;28;20044;-81
2022/03/15 09:34:18;;;;;;;34.10;25.45;;;8.30;99.90;;;;;;5069942;28;20041;-80
2022/03/15 09:36:44;;;;;;;33.03;22.88;;;8.30;99.90;;;;;;5072646;28;20036;-81
2022/03/15 09:39:10;;;;;;;30.25;22.63;;;8.30;99.90;;;;;;5069807;28;20068;-80
2022/03/15 09:41:40;;;;;;;31.65;22.27;;;8.40;99.90;;;;;;5072489;28;20094;-80
2022/03/15 09:44:10;;;;;;;30.50;22.85;;;8.40;99.90;;;;;;5072670;28;20121;-80
2022/03/15 09:46:49;;;;;;;27.63;22.40;;;8.40;99.90;;;;;;5072647;28;20072;-81
2022/03/15 09:49:17;;;;;;;28.90;22.30;;;8.50;99.90;;;;;;5072606;28;20052;-81
2022/03/15 09:51:42;;;;;;;27.20;21.30;;;8.50;99.90;;;;;;5072774;28;20076;-81
2022/03/15 09:54:08;;;;;;;29.42;21.65;;;8.60;99.90;;;;;;5072383;28;20083;-81
2022/03/15 09:56:38;;;;;;;31.75;23.48;;;8.60;99.90;;;;;;5056388;28;20097;-81
2022/03/15 09:59:10;;;;;;;33.65;24.15;;;8.70;99.90;;;;;;5072599;28;20036;-81
2022/03/15 10:01:39;;;;;;;32.40;22.10;;;8.70;99.90;;;;;;5072331;28;20075;-81
2022/03/15 10:04:05;;;;;;;29.88;22.95;;;8.80;99.90;;;;;;5056065;28;20083;-80
2022/03/15 10:06:31;;;;;;;31.95;23.45;;;8.80;99.90;;;;;;5072610;28;20076;-81
2022/03/15 10:08:56;;;;;;;30.58;22.48;;;8.90;99.90;;;;;;5072296;28;20079;-80
2022/03/15 10:11:23;;;;;;;26.77;20.25;;;8.90;99.90;;;;;;5055841;28;20040;-81
2022/03/15 10:13:50;;;;;;;31.52;22.67;;;9.00;99.90;;;;;;5055476;28;20050;-80
2022/03/15 10:16:15;;;;;;;31.05;23.30;;;9.10;99.90;;;;;;5072408;28;20123;-81
2022/03/15 10:18:56;;;;;;;29.25;22.00;;;9.10;99.90;;;;;;5055545;28;20476;-80
2022/03/15 10:21:25;;;;;;;27.95;22.60;;;9.20;99.90;;;;;;5071807;28;20043;-81
2022/03/15 10:23:54;;;;;;;28.13;22.55;;;9.20;99.90;;;;;;5072205;28;20106;-81
2022/03/15 10:26:25;;;;;;;31.45;24.40;;;9.30;99.90;;;;;;5072026;28;20033;-81
2022/03/15 10:28:53;;;;;;;31.48;24.65;;;9.30;99.90;;;;;;5072169;28;20036;-81
2022/03/15 10:31:25;;;;;;;32.28;23.92;;;9.40;99.90;;;;;;5071812;28;20048;-81
2022/03/15 10:33:54;;;;;;;27.90;20.70;;;9.40;99.90;;;;;;5054969;28;20040;-81
2022/03/15 10:36:21;;;;;;;27.83;22.08;;;9.50;99.90;;;;;;5071947;28;20048;-81
2022/03/15 10:38:51;;;;;;;26.60;21.25;;;9.60;99.90;;;;;;5055044;28;20041;-80
2022/03/15 10:41:18;;;;;;;30.15;21.25;;;9.60;99.90;;;;;;5071709;28;20040;-81
2022/03/15 10:43:50;;;;;;;30.92;21.23;;;9.70;99.90;;;;;;5071870;28;20134;-81
2022/03/15 10:46:22;;;;;;;24.30;19.58;;;9.70;99.90;;;;;;5071278;28;20052;-80
2022/03/15 10:48:59;;;;;;;26.13;19.17;;;9.80;99.90;;;;;;5071826;28;20056;-80
2022/03/15 10:51:25;;;;;;;26.58;20.77;;;9.80;99.90;;;;;;5071686;28;20040;-81
2022/03/15 10:54:03;;;;;;;27.65;22.27;;;9.90;99.90;;;;;;5070377;28;20070;-80
2022/03/15 10:56:29;;;;;;;29.30;20.83;;;9.90;99.90;;;;;;5071830;28;20059;-81
2022/03/15 10:59:04;;;;;;;26.73;21.85;;;10.00;99.90;;;;;;5071014;28;20482;-81
2022/03/15 11:01:37;;;;;;;29.67;21.67;;;10.00;99.90;;;;;;5071264;28;20076;-81
2022/03/15 11:04:08;;;;;;;25.25;20.60;;;10.10;99.90;;;;;;5071354;28;20553;-81
2022/03/15 11:06:44;;;;;;;27.85;20.63;;;10.10;99.90;;;;;;5052658;28;20040;-81
2022/03/15 11:09:18;;;;;;;27.33;21.65;;;10.20;99.90;;;;;;5054474;28;20123;-81
2022/03/15 11:11:59;;;;;;;24.25;19.92;;;10.20;99.90;;;;;;5071309;28;20127;-81
2022/03/15 11:14:47;;;;;;;25.70;20.35;;;10.30;99.90;;;;;;5071203;28;20422;-81
2022/03/15 11:17:14;;;;;;;27.10;22.02;;;10.40;99.90;;;;;;5071054;28;20040;-81
2022/03/15 11:19:43;;;;;;;26.17;20.45;;;10.50;99.90;;;;;;5053915;28;20040;-81
2022/03/15 11:22:09;;;;;;;24.90;20.27;;;10.50;99.90;;;;;;5054257;28;20032;-81
2022/03/15 11:24:41;;;;;;;27.55;21.33;;;10.60;99.90;;;;;;5070981;28;20052;-81
2022/03/15 11:27:08;;;;;;;30.70;21.90;;;10.70;99.90;;;;;;5054330;28;20044;-81
2022/03/15 11:29:36;;;;;;;25.65;21.05;;;10.70;99.90;;;;;;5070566;28;20066;-81
2022/03/15 11:32:02;;;;;;;27.35;21.42;;;10.80;99.90;;;;;;5070599;28;20052;-81
2022/03/15 11:34:29;;;;;;;27.33;21.63;;;10.90;99.90;;;;;;5070726;28;20485;-81
2022/03/15 11:36:57;;;;;;;25.48;20.65;;;11.00;99.90;;;;;;5070741;28;20401;-81
2022/03/15 11:39:23;;;;;;;27.13;19.75;;;11.00;99.90;;;;;;5070592;28;20043;-81
2022/03/15 11:41:50;;;;;;;25.55;20.63;;;11.10;99.90;;;;;;5070726;28;20047;-81
2022/03/15 11:45:02;;;;;;;26.55;20.15;;;11.10;99.90;;;;;;5070637;28;20052;-81
2022/03/15 11:47:46;;;;;;;27.35;20.88;;;11.20;99.90;;;;;;5070005;28;20108;-81
2022/03/15 11:50:22;;;;;;;22.63;18.50;;;11.30;99.90;;;;;;5070556;28;20419;-81
2022/03/15 11:53:06;;;;;;;24.52;19.20;;;11.30;99.90;;;;;;5053819;28;20055;-81
2022/03/15 11:55:49;;;;;;;22.27;17.58;;;11.40;99.90;;;;;;5052722;28;20044;-80
2022/03/15 11:58:27;;;;;;;23.30;19.38;;;11.40;99.90;;;;;;5069938;28;20334;-81
2022/03/15 12:00:54;;;;;;;25.27;17.88;;;11.50;99.90;;;;;;5070118;28;20600;-81
2022/03/15 12:03:23;;;;;;;23.00;17.77;;;11.50;99.90;;;;;;5070080;28;20383;-81
2022/03/15 12:05:50;;;;;;;25.67;18.40;;;11.60;99.90;;;;;;5069960;28;20087;-81
2022/03/15 12:08:17;;;;;;;21.90;17.98;;;11.70;99.90;;;;;;5070348;28;20490;-81
2022/03/15 12:10:57;;;;;;;24.90;20.50;;;11.70;99.90;;;;;;5070166;28;20398;-81
2022/03/15 12:13:45;;;;;;;24.52;19.05;;;11.80;99.90;;;;;;5053501;28;20090;-81
2022/03/15 12:16:15;;;;;;;22.88;17.15;;;11.80;99.90;;;;;;5069732;28;20517;-81
2022/03/15 12:18:49;;;;;;;22.58;17.08;;;11.90;99.90;;;;;;5053581;28;20532;-81
2022/03/15 12:21:15;;;;;;;24.20;17.73;;;11.90;99.90;;;;;;5053410;28;20436;-81
2022/03/15 12:23:46;;;;;;;23.55;17.13;;;11.90;99.90;;;;;;5070185;28;20490;-81
2022/03/15 12:26:18;;;;;;;24.58;17.52;;;12.00;99.90;;;;;;5069911;28;20094;-81
2022/03/15 12:29:01;;;;;;;22.80;17.42;;;12.10;99.90;;;;;;5070131;28;20071;-81
2022/03/15 12:31:44;;;;;;;25.45;16.83;;;12.10;99.90;;;;;;5070107;28;20470;-81
2022/03/15 12:34:14;;;;;;;23.33;17.00;;;12.20;99.90;;;;;;5069930;28;20040;-81
2022/03/15 12:36:51;;;;;;;25.15;17.58;;;12.20;99.90;;;;;;5070171;28;20170;-81
2022/03/15 12:39:19;;;;;;;23.17;17.27;;;12.20;99.90;;;;;;5069735;28;20391;-81
2022/03/15 12:41:50;;;;;;;20.52;16.25;;;12.30;99.90;;;;;;5053211;28;20317;-81